sensor_id;sensor_type;location;lat;lon;timestamp;temperature;humidity
6260;DHT22;3163;51.516;4.000;2023-05-21T00:00:41;17.70;99.90
6260;DHT22;3163;51.516;4.000;2023-05-21T00:03:06;17.70;99.90
6260;DHT22;3163;51.516;4.000;2023-05-21T00:05:41;17.70;99.90
6260;DHT22;3163;51.516;4.000;2023-05-21T00:08:07;17.70;99.90
6260;DHT22;3163;51.516;4.000;2023-05-21T00:10:32;17.70;99.90
6260;DHT22;3163;51.516;4.000;2023-05-21T00:12:58;17.70;99.90
6260;DHT22;3163;51.516;4.000;2023-05-21T00:15:24;17.60;99.90
6260;DHT22;3163;51.516;4.000;2023-05-21T00:17:49;17.60;99.90
6260;DHT22;3163;51.516;4.000;2023-05-21T00:20:15;17.60;99.90
6260;DHT22;3163;51.516;4.000;2023-05-21T00:22:42;17.60;99.90
6260;DHT22;3163;51.516;4.000;2023-05-21T00:25:09;17.60;99.90
6260;DHT22;3163;51.516;4.000;2023-05-21T00:27:35;17.50;99.90
6260;DHT22;3163;51.516;4.000;2023-05-21T00:30:01;17.60;99.90
6260;DHT22;3163;51.516;4.000;2023-05-21T00:32:27;17.50;99.90
6260;DHT22;3163;51.516;4.000;2023-05-21T00:34:53;17.50;99.90
6260;DHT22;3163;51.516;4.000;2023-05-21T00:37:19;17.50;99.90
6260;DHT22;3163;51.516;4.000;2023-05-21T00:39:45;17.60;99.90
6260;DHT22;3163;51.516;4.000;2023-05-21T00:42:11;17.50;99.90
6260;DHT22;3163;51.516;4.000;2023-05-21T00:44:36;17.50;99.90
6260;DHT22;3163;51.516;4.000;2023-05-21T00:47:03;17.60;99.90
6260;DHT22;3163;51.516;4.000;2023-05-21T00:49:31;17.50;99.90
6260;DHT22;3163;51.516;4.000;2023-05-21T00:51:57;17.60;99.90
6260;DHT22;3163;51.516;4.000;2023-05-21T00:54:25;17.60;99.90
6260;DHT22;3163;51.516;4.000;2023-05-21T00:56:52;17.60;99.90
6260;DHT22;3163;51.516;4.000;2023-05-21T00:59:18;17.60;99.90
6260;DHT22;3163;51.516;4.000;2023-05-21T01:01:43;17.50;99.90
6260;DHT22;3163;51.516;4.000;2023-05-21T01:04:10;17.50;99.90
6260;DHT22;3163;51.516;4.000;2023-05-21T01:06:36;17.40;99.90
6260;DHT22;3163;51.516;4.000;2023-05-21T01:09:03;17.50;99.90
6260;DHT22;3163;51.516;4.000;2023-05-21T01:11:49;17.40;99.90
6260;DHT22;3163;51.516;4.000;2023-05-21T01:14:16;17.50;99.90
6260;DHT22;3163;51.516;4.000;2023-05-21T01:16:44;17.40;99.90
6260;DHT22;3163;51.516;4.000;2023-05-21T01:19:16;17.40;99.90
6260;DHT22;3163;51.516;4.000;2023-05-21T01:21:49;17.40;99.90
6260;DHT22;3163;51.516;4.000;2023-05-21T01:24:15;17.40;99.90
6260;DHT22;3163;51.516;4.000;2023-05-21T01:26:41;17.40;99.90
6260;DHT22;3163;51.516;4.000;2023-05-21T01:29:08;17.40;99.90
6260;DHT22;3163;51.516;4.000;2023-05-21T01:32:03;17.40;99.90
6260;DHT22;3163;51.516;4.000;2023-05-21T01:34:41;17.40;99.90
6260;DHT22;3163;51.516;4.000;2023-05-21T01:37:35;17.40;99.90
6260;DHT22;3163;51.516;4.000;2023-05-21T01:42:40;17.40;99.90
6260;DHT22;3163;51.516;4.000;2023-05-21T01:45:07;17.40;99.90
6260;DHT22;3163;51.516;4.000;2023-05-21T01:47:35;17.30;99.90
6260;DHT22;3163;51.516;4.000;2023-05-21T01:50:02;17.30;99.90
6260;DHT22;3163;51.516;4.000;2023-05-21T01:52:29;17.30;99.90
6260;DHT22;3163;51.516;4.000;2023-05-21T01:54:56;17.30;99.90
6260;DHT22;3163;51.516;4.000;2023-05-21T01:57:22;17.30;99.90
6260;DHT22;3163;51.516;4.000;2023-05-21T01:59:47;17.30;99.90
6260;DHT22;3163;51.516;4.000;2023-05-21T02:02:13;17.20;99.90
6260;DHT22;3163;51.516;4.000;2023-05-21T02:04:39;17.20;99.90
6260;DHT22;3163;51.516;4.000;2023-05-21T02:07:08;17.20;99.90
6260;DHT22;3163;51.516;4.000;2023-05-21T02:09:34;17.20;99.90
6260;DHT22;3163;51.516;4.000;2023-05-21T02:12:00;17.30;99.90
6260;DHT22;3163;51.516;4.000;2023-05-21T02:14:26;17.20;99.90
6260;DHT22;3163;51.516;4.000;2023-05-21T02:16:52;17.20;99.90
6260;DHT22;3163;51.516;4.000;2023-05-21T02:19:17;17.30;99.90
6260;DHT22;3163;51.516;4.000;2023-05-21T02:21:43;17.20;99.90
6260;DHT22;3163;51.516;4.000;2023-05-21T02:24:08;17.20;99.90
6260;DHT22;3163;51.516;4.000;2023-05-21T02:26:34;17.30;99.90
6260;DHT22;3163;51.516;4.000;2023-05-21T02:29:00;17.30;99.90
6260;DHT22;3163;51.516;4.000;2023-05-21T02:31:26;17.30;99.90
6260;DHT22;3163;51.516;4.000;2023-05-21T02:33:51;17.30;99.90
6260;DHT22;3163;51.516;4.000;2023-05-21T02:36:17;17.20;99.90
6260;DHT22;3163;51.516;4.000;2023-05-21T02:38:43;17.20;99.90
6260;DHT22;3163;51.516;4.000;2023-05-21T02:41:10;17.20;99.90
6260;DHT22;3163;51.516;4.000;2023-05-21T02:43:35;17.30;99.90
6260;DHT22;3163;51.516;4.000;2023-05-21T02:46:01;17.20;99.90
6260;DHT22;3163;51.516;4.000;2023-05-21T02:48:27;17.20;99.90
6260;DHT22;3163;51.516;4.000;2023-05-21T02:50:52;17.20;99.90
6260;DHT22;3163;51.516;4.000;2023-05-21T02:53:18;17.20;99.90
6260;DHT22;3163;51.516;4.000;2023-05-21T02:55:44;17.20;99.90
6260;DHT22;3163;51.516;4.000;2023-05-21T02:58:10;17.20;99.90
6260;DHT22;3163;51.516;4.000;2023-05-21T03:00:37;17.20;99.90
6260;DHT22;3163;51.516;4.000;2023-05-21T03:03:03;17.20;99.90
6260;DHT22;3163;51.516;4.000;2023-05-21T03:05:29;17.20;99.90
6260;DHT22;3163;51.516;4.000;2023-05-21T03:07:55;17.10;99.90
6260;DHT22;3163;51.516;4.000;2023-05-21T03:10:21;17.20;99.90
6260;DHT22;3163;51.516;4.000;2023-05-21T03:12:46;17.10;99.90
6260;DHT22;3163;51.516;4.000;2023-05-21T03:15:12;17.10;99.90
6260;DHT22;3163;51.516;4.000;2023-05-21T03:17:39;17.20;99.90
6260;DHT22;3163;51.516;4.000;2023-05-21T03:20:07;17.10;99.90
6260;DHT22;3163;51.516;4.000;2023-05-21T03:22:34;17.20;99.90
6260;DHT22;3163;51.516;4.000;2023-05-21T03:25:01;17.20;99.90
6260;DHT22;3163;51.516;4.000;2023-05-21T03:27:27;17.10;99.90
6260;DHT22;3163;51.516;4.000;2023-05-21T03:29:53;17.10;99.90
6260;DHT22;3163;51.516;4.000;2023-05-21T03:32:20;17.20;99.90
6260;DHT22;3163;51.516;4.000;2023-05-21T03:34:45;17.10;99.90
6260;DHT22;3163;51.516;4.000;2023-05-21T03:37:11;17.10;99.90
6260;DHT22;3163;51.516;4.000;2023-05-21T03:39:36;17.10;99.90
6260;DHT22;3163;51.516;4.000;2023-05-21T03:42:02;17.10;99.90
6260;DHT22;3163;51.516;4.000;2023-05-21T03:44:28;17.10;99.90
6260;DHT22;3163;51.516;4.000;2023-05-21T03:46:56;17.10;99.90
6260;DHT22;3163;51.516;4.000;2023-05-21T03:49:23;17.10;99.90
6260;DHT22;3163;51.516;4.000;2023-05-21T03:51:48;17.10;99.90
6260;DHT22;3163;51.516;4.000;2023-05-21T03:54:14;17.10;99.90
6260;DHT22;3163;51.516;4.000;2023-05-21T03:56:40;17.10;99.90
6260;DHT22;3163;51.516;4.000;2023-05-21T03:59:05;17.10;99.90
6260;DHT22;3163;51.516;4.000;2023-05-21T04:01:31;17.10;99.90
6260;DHT22;3163;51.516;4.000;2023-05-21T04:03:57;17.10;99.90
6260;DHT22;3163;51.516;4.000;2023-05-21T04:06:23;17.10;99.90
6260;DHT22;3163;51.516;4.000;2023-05-21T04:08:49;17.10;99.90
6260;DHT22;3163;51.516;4.000;2023-05-21T04:11:14;17.10;99.90
6260;DHT22;3163;51.516;4.000;2023-05-21T04:13:40;17.10;99.90
6260;DHT22;3163;51.516;4.000;2023-05-21T04:16:06;17.10;99.90
6260;DHT22;3163;51.516;4.000;2023-05-21T04:18:33;17.20;99.90
6260;DHT22;3163;51.516;4.000;2023-05-21T04:20:59;17.20;99.90
6260;DHT22;3163;51.516;4.000;2023-05-21T04:23:26;17.20;99.90
6260;DHT22;3163;51.516;4.000;2023-05-21T04:25:52;17.20;99.90
6260;DHT22;3163;51.516;4.000;2023-05-21T04:28:18;17.20;99.90
6260;DHT22;3163;51.516;4.000;2023-05-21T04:30:45;17.30;99.90
6260;DHT22;3163;51.516;4.000;2023-05-21T04:33:11;17.30;99.90
6260;DHT22;3163;51.516;4.000;2023-05-21T04:35:36;17.30;99.90
6260;DHT22;3163;51.516;4.000;2023-05-21T04:38:02;17.30;99.90
6260;DHT22;3163;51.516;4.000;2023-05-21T04:40:29;17.30;99.90
6260;DHT22;3163;51.516;4.000;2023-05-21T04:42:55;17.30;99.90
6260;DHT22;3163;51.516;4.000;2023-05-21T04:45:21;17.30;99.90
6260;DHT22;3163;51.516;4.000;2023-05-21T04:47:48;17.30;99.90
6260;DHT22;3163;51.516;4.000;2023-05-21T04:50:14;17.30;99.90
6260;DHT22;3163;51.516;4.000;2023-05-21T04:52:40;17.40;99.90
6260;DHT22;3163;51.516;4.000;2023-05-21T04:55:06;17.50;99.90
6260;DHT22;3163;51.516;4.000;2023-05-21T04:57:32;17.60;99.90
6260;DHT22;3163;51.516;4.000;2023-05-21T04:59:58;17.60;99.90
6260;DHT22;3163;51.516;4.000;2023-05-21T05:02:24;17.60;99.90
6260;DHT22;3163;51.516;4.000;2023-05-21T05:04:49;17.70;99.90
6260;DHT22;3163;51.516;4.000;2023-05-21T05:07:15;17.60;99.90
6260;DHT22;3163;51.516;4.000;2023-05-21T05:12:07;17.70;99.90
6260;DHT22;3163;51.516;4.000;2023-05-21T05:14:32;17.70;99.90
6260;DHT22;3163;51.516;4.000;2023-05-21T05:16:58;17.50;99.90
6260;DHT22;3163;51.516;4.000;2023-05-21T05:19:24;17.50;99.90
6260;DHT22;3163;51.516;4.000;2023-05-21T05:21:49;17.60;99.90
6260;DHT22;3163;51.516;4.000;2023-05-21T05:24:15;17.70;99.90
6260;DHT22;3163;51.516;4.000;2023-05-21T05:26:41;17.70;99.90
6260;DHT22;3163;51.516;4.000;2023-05-21T05:29:06;17.90;99.90
6260;DHT22;3163;51.516;4.000;2023-05-21T05:31:32;17.80;99.90
6260;DHT22;3163;51.516;4.000;2023-05-21T05:33:58;17.90;99.90
6260;DHT22;3163;51.516;4.000;2023-05-21T05:36:23;17.90;99.90
6260;DHT22;3163;51.516;4.000;2023-05-21T05:38:49;17.90;99.90
6260;DHT22;3163;51.516;4.000;2023-05-21T05:41:14;17.90;99.90
6260;DHT22;3163;51.516;4.000;2023-05-21T05:43:40;18.00;99.90
6260;DHT22;3163;51.516;4.000;2023-05-21T05:46:05;18.00;99.90
6260;DHT22;3163;51.516;4.000;2023-05-21T05:48:32;17.80;99.90
6260;DHT22;3163;51.516;4.000;2023-05-21T05:50:58;17.80;99.90
6260;DHT22;3163;51.516;4.000;2023-05-21T05:53:24;17.80;99.90
6260;DHT22;3163;51.516;4.000;2023-05-21T05:55:50;17.90;99.90
6260;DHT22;3163;51.516;4.000;2023-05-21T05:58:15;18.00;99.90
6260;DHT22;3163;51.516;4.000;2023-05-21T06:00:41;18.10;99.90
6260;DHT22;3163;51.516;4.000;2023-05-21T06:03:07;18.00;99.90
6260;DHT22;3163;51.516;4.000;2023-05-21T06:05:32;18.10;99.90
6260;DHT22;3163;51.516;4.000;2023-05-21T06:07:58;18.20;99.90
6260;DHT22;3163;51.516;4.000;2023-05-21T06:10:24;18.20;99.90
6260;DHT22;3163;51.516;4.000;2023-05-21T06:12:50;18.20;99.90
6260;DHT22;3163;51.516;4.000;2023-05-21T06:15:15;18.30;99.90
6260;DHT22;3163;51.516;4.000;2023-05-21T06:17:43;18.30;99.90
6260;DHT22;3163;51.516;4.000;2023-05-21T06:20:10;18.10;99.90
6260;DHT22;3163;51.516;4.000;2023-05-21T06:22:36;18.00;99.90
6260;DHT22;3163;51.516;4.000;2023-05-21T06:25:02;18.00;99.90
6260;DHT22;3163;51.516;4.000;2023-05-21T06:27:28;18.10;99.90
6260;DHT22;3163;51.516;4.000;2023-05-21T06:29:53;18.30;99.90
6260;DHT22;3163;51.516;4.000;2023-05-21T06:32:19;18.40;99.90
6260;DHT22;3163;51.516;4.000;2023-05-21T06:34:45;18.40;99.90
6260;DHT22;3163;51.516;4.000;2023-05-21T06:37:11;18.40;99.90
6260;DHT22;3163;51.516;4.000;2023-05-21T06:39:37;18.50;99.90
6260;DHT22;3163;51.516;4.000;2023-05-21T06:42:02;18.50;99.90
6260;DHT22;3163;51.516;4.000;2023-05-21T06:44:28;18.50;99.90
6260;DHT22;3163;51.516;4.000;2023-05-21T06:46:54;18.50;99.90
6260;DHT22;3163;51.516;4.000;2023-05-21T06:49:19;18.50;99.90
6260;DHT22;3163;51.516;4.000;2023-05-21T06:51:45;18.20;99.90
6260;DHT22;3163;51.516;4.000;2023-05-21T06:54:11;18.10;99.90
6260;DHT22;3163;51.516;4.000;2023-05-21T06:56:37;18.30;99.90
6260;DHT22;3163;51.516;4.000;2023-05-21T06:59:02;18.40;99.90
6260;DHT22;3163;51.516;4.000;2023-05-21T07:01:28;18.50;99.90
6260;DHT22;3163;51.516;4.000;2023-05-21T07:03:54;18.60;99.90
6260;DHT22;3163;51.516;4.000;2023-05-21T07:06:20;18.60;99.90
6260;DHT22;3163;51.516;4.000;2023-05-21T07:08:46;18.70;99.90
6260;DHT22;3163;51.516;4.000;2023-05-21T07:11:14;18.60;99.90
6260;DHT22;3163;51.516;4.000;2023-05-21T07:13:39;18.70;99.90
6260;DHT22;3163;51.516;4.000;2023-05-21T07:16:05;18.70;99.90
6260;DHT22;3163;51.516;4.000;2023-05-21T07:18:31;18.70;99.90
6260;DHT22;3163;51.516;4.000;2023-05-21T07:20:57;18.60;99.90
6260;DHT22;3163;51.516;4.000;2023-05-21T07:23:22;18.10;99.90
6260;DHT22;3163;51.516;4.000;2023-05-21T07:25:48;18.30;99.90
6260;DHT22;3163;51.516;4.000;2023-05-21T07:28:14;18.40;99.90
6260;DHT22;3163;51.516;4.000;2023-05-21T07:30:40;18.40;99.90
6260;DHT22;3163;51.516;4.000;2023-05-21T07:33:05;18.60;99.90
6260;DHT22;3163;51.516;4.000;2023-05-21T07:35:31;18.60;99.90
6260;DHT22;3163;51.516;4.000;2023-05-21T07:37:57;18.60;99.90
6260;DHT22;3163;51.516;4.000;2023-05-21T07:40:22;18.60;99.90
6260;DHT22;3163;51.516;4.000;2023-05-21T07:42:48;18.70;99.90
6260;DHT22;3163;51.516;4.000;2023-05-21T07:45:13;18.80;99.90
6260;DHT22;3163;51.516;4.000;2023-05-21T07:47:39;18.80;99.90
6260;DHT22;3163;51.516;4.000;2023-05-21T07:50:05;18.80;99.90
6260;DHT22;3163;51.516;4.000;2023-05-21T07:52:31;18.50;99.90
6260;DHT22;3163;51.516;4.000;2023-05-21T07:54:56;18.30;99.90
6260;DHT22;3163;51.516;4.000;2023-05-21T07:57:22;18.30;99.90
6260;DHT22;3163;51.516;4.000;2023-05-21T07:59:48;18.60;99.90
6260;DHT22;3163;51.516;4.000;2023-05-21T08:02:13;18.70;99.90
6260;DHT22;3163;51.516;4.000;2023-05-21T08:04:39;18.80;99.90
6260;DHT22;3163;51.516;4.000;2023-05-21T08:07:04;19.00;99.90
6260;DHT22;3163;51.516;4.000;2023-05-21T08:09:30;19.00;99.90
6260;DHT22;3163;51.516;4.000;2023-05-21T08:11:56;18.90;99.90
6260;DHT22;3163;51.516;4.000;2023-05-21T08:14:22;19.10;99.90
6260;DHT22;3163;51.516;4.000;2023-05-21T08:16:47;19.20;99.90
6260;DHT22;3163;51.516;4.000;2023-05-21T08:19:13;19.10;99.90
6260;DHT22;3163;51.516;4.000;2023-05-21T08:21:39;19.10;99.90
6260;DHT22;3163;51.516;4.000;2023-05-21T08:24:05;18.90;99.90
6260;DHT22;3163;51.516;4.000;2023-05-21T08:26:31;18.60;99.90
6260;DHT22;3163;51.516;4.000;2023-05-21T08:28:57;18.80;99.90
6260;DHT22;3163;51.516;4.000;2023-05-21T08:31:22;19.20;99.90
6260;DHT22;3163;51.516;4.000;2023-05-21T08:33:52;19.40;99.90
6260;DHT22;3163;51.516;4.000;2023-05-21T08:36:18;19.40;99.90
6260;DHT22;3163;51.516;4.000;2023-05-21T08:38:43;19.50;99.90
6260;DHT22;3163;51.516;4.000;2023-05-21T08:41:10;19.50;99.90
6260;DHT22;3163;51.516;4.000;2023-05-21T08:43:37;19.50;99.90
6260;DHT22;3163;51.516;4.000;2023-05-21T08:46:03;19.60;99.90
6260;DHT22;3163;51.516;4.000;2023-05-21T08:48:30;19.60;99.90
6260;DHT22;3163;51.516;4.000;2023-05-21T08:50:57;19.70;99.90
6260;DHT22;3163;51.516;4.000;2023-05-21T08:53:24;19.40;99.90
6260;DHT22;3163;51.516;4.000;2023-05-21T08:55:53;18.90;99.90
6260;DHT22;3163;51.516;4.000;2023-05-21T08:58:20;18.80;99.90
6260;DHT22;3163;51.516;4.000;2023-05-21T09:00:46;19.10;99.90
6260;DHT22;3163;51.516;4.000;2023-05-21T09:03:13;19.40;99.90
6260;DHT22;3163;51.516;4.000;2023-05-21T09:05:43;19.60;99.90
6260;DHT22;3163;51.516;4.000;2023-05-21T09:08:28;19.40;99.90
6260;DHT22;3163;51.516;4.000;2023-05-21T09:10:55;19.40;99.90
6260;DHT22;3163;51.516;4.000;2023-05-21T09:13:21;19.50;99.90
6260;DHT22;3163;51.516;4.000;2023-05-21T09:15:49;19.50;99.90
6260;DHT22;3163;51.516;4.000;2023-05-21T09:18:16;19.70;99.90
6260;DHT22;3163;51.516;4.000;2023-05-21T09:20:41;19.60;99.90
6260;DHT22;3163;51.516;4.000;2023-05-21T09:23:08;19.50;99.90
6260;DHT22;3163;51.516;4.000;2023-05-21T09:25:40;19.40;99.90
6260;DHT22;3163;51.516;4.000;2023-05-21T09:28:14;19.10;99.90
6260;DHT22;3163;51.516;4.000;2023-05-21T09:30:44;19.60;99.90
6260;DHT22;3163;51.516;4.000;2023-05-21T09:33:10;19.90;99.90
6260;DHT22;3163;51.516;4.000;2023-05-21T09:35:36;20.10;99.90
6260;DHT22;3163;51.516;4.000;2023-05-21T09:38:07;20.30;99.90
6260;DHT22;3163;51.516;4.000;2023-05-21T09:43:00;20.40;99.90
6260;DHT22;3163;51.516;4.000;2023-05-21T09:45:27;20.50;99.90
6260;DHT22;3163;51.516;4.000;2023-05-21T09:47:53;20.50;99.90
6260;DHT22;3163;51.516;4.000;2023-05-21T09:50:26;18.50;99.90
6260;DHT22;3163;51.516;4.000;2023-05-21T09:52:55;19.30;99.90
6260;DHT22;3163;51.516;4.000;2023-05-21T09:55:23;20.00;99.90
6260;DHT22;3163;51.516;4.000;2023-05-21T09:57:50;20.00;99.90
6260;DHT22;3163;51.516;4.000;2023-05-21T10:00:27;20.10;99.90
6260;DHT22;3163;51.516;4.000;2023-05-21T10:02:57;20.60;99.90
6260;DHT22;3163;51.516;4.000;2023-05-21T10:05:27;20.70;99.90
6260;DHT22;3163;51.516;4.000;2023-05-21T10:07:58;20.80;99.90
6260;DHT22;3163;51.516;4.000;2023-05-21T10:10:26;20.60;99.90
6260;DHT22;3163;51.516;4.000;2023-05-21T10:13:12;20.90;99.90
6260;DHT22;3163;51.516;4.000;2023-05-21T10:15:43;20.80;99.90
6260;DHT22;3163;51.516;4.000;2023-05-21T10:18:12;21.00;99.90
6260;DHT22;3163;51.516;4.000;2023-05-21T10:20:38;20.70;99.90
6260;DHT22;3163;51.516;4.000;2023-05-21T10:23:04;19.90;99.90
6260;DHT22;3163;51.516;4.000;2023-05-21T10:25:31;20.20;99.90
6260;DHT22;3163;51.516;4.000;2023-05-21T10:27:56;20.30;99.90
6260;DHT22;3163;51.516;4.000;2023-05-21T10:30:23;20.80;99.90
6260;DHT22;3163;51.516;4.000;2023-05-21T10:32:49;20.80;99.90
6260;DHT22;3163;51.516;4.000;2023-05-21T10:35:16;20.90;99.90
6260;DHT22;3163;51.516;4.000;2023-05-21T10:37:45;21.10;99.90
6260;DHT22;3163;51.516;4.000;2023-05-21T10:40:11;21.10;99.90
6260;DHT22;3163;51.516;4.000;2023-05-21T10:56:52;20.50;99.90
6260;DHT22;3163;51.516;4.000;2023-05-21T10:59:42;20.40;99.90
6260;DHT22;3163;51.516;4.000;2023-05-21T11:02:11;21.10;99.90
6260;DHT22;3163;51.516;4.000;2023-05-21T11:04:37;21.00;99.90
6260;DHT22;3163;51.516;4.000;2023-05-21T11:07:06;21.00;99.90
6260;DHT22;3163;51.516;4.000;2023-05-21T11:09:32;21.10;99.90
6260;DHT22;3163;51.516;4.000;2023-05-21T11:11:58;21.00;99.90
6260;DHT22;3163;51.516;4.000;2023-05-21T11:14:39;20.90;99.90
6260;DHT22;3163;51.516;4.000;2023-05-21T11:17:11;21.10;99.90
6260;DHT22;3163;51.516;4.000;2023-05-21T11:19:42;21.00;99.90
6260;DHT22;3163;51.516;4.000;2023-05-21T11:22:22;21.10;99.90
6260;DHT22;3163;51.516;4.000;2023-05-21T11:24:49;20.50;99.90
6260;DHT22;3163;51.516;4.000;2023-05-21T11:27:34;20.20;99.90
6260;DHT22;3163;51.516;4.000;2023-05-21T11:30:05;20.30;99.90
6260;DHT22;3163;51.516;4.000;2023-05-21T11:32:36;20.70;99.90
6260;DHT22;3163;51.516;4.000;2023-05-21T11:35:02;20.70;99.90
6260;DHT22;3163;51.516;4.000;2023-05-21T11:37:29;20.90;99.90
6260;DHT22;3163;51.516;4.000;2023-05-21T11:40:15;21.00;99.90
6260;DHT22;3163;51.516;4.000;2023-05-21T11:42:41;20.80;99.90
6260;DHT22;3163;51.516;4.000;2023-05-21T11:45:09;20.50;99.90
6260;DHT22;3163;51.516;4.000;2023-05-21T11:47:35;20.40;99.90
6260;DHT22;3163;51.516;4.000;2023-05-21T11:50:02;20.30;99.90
6260;DHT22;3163;51.516;4.000;2023-05-21T11:52:29;20.40;99.90
6260;DHT22;3163;51.516;4.000;2023-05-21T11:54:55;19.90;99.90
6260;DHT22;3163;51.516;4.000;2023-05-21T11:57:24;20.00;99.90
6260;DHT22;3163;51.516;4.000;2023-05-21T11:59:51;19.80;99.90
6260;DHT22;3163;51.516;4.000;2023-05-21T12:02:20;20.30;99.90
6260;DHT22;3163;51.516;4.000;2023-05-21T12:04:48;20.50;99.90
6260;DHT22;3163;51.516;4.000;2023-05-21T12:07:16;20.70;99.90
6260;DHT22;3163;51.516;4.000;2023-05-21T12:09:43;20.90;99.90
6260;DHT22;3163;51.516;4.000;2023-05-21T12:12:11;21.10;99.90
6260;DHT22;3163;51.516;4.000;2023-05-21T12:14:46;21.10;99.90
6260;DHT22;3163;51.516;4.000;2023-05-21T12:17:15;21.10;99.90
6260;DHT22;3163;51.516;4.000;2023-05-21T12:19:41;21.10;99.90
6260;DHT22;3163;51.516;4.000;2023-05-21T12:22:07;21.20;99.90
6260;DHT22;3163;51.516;4.000;2023-05-21T12:24:34;21.20;99.90
6260;DHT22;3163;51.516;4.000;2023-05-21T12:27:02;20.90;99.90
6260;DHT22;3163;51.516;4.000;2023-05-21T12:29:37;20.50;99.90
6260;DHT22;3163;51.516;4.000;2023-05-21T12:32:06;21.00;99.90
6260;DHT22;3163;51.516;4.000;2023-05-21T12:34:43;21.40;99.90
6260;DHT22;3163;51.516;4.000;2023-05-21T12:42:13;21.40;99.90
6260;DHT22;3163;51.516;4.000;2023-05-21T12:44:42;21.50;99.90
6260;DHT22;3163;51.516;4.000;2023-05-21T12:47:09;21.70;99.90
6260;DHT22;3163;51.516;4.000;2023-05-21T12:49:38;22.00;99.90
6260;DHT22;3163;51.516;4.000;2023-05-21T12:52:08;21.80;99.90
6260;DHT22;3163;51.516;4.000;2023-05-21T12:54:36;22.10;99.90
6260;DHT22;3163;51.516;4.000;2023-05-21T12:57:09;21.80;99.90
6260;DHT22;3163;51.516;4.000;2023-05-21T12:59:43;21.20;99.90
6260;DHT22;3163;51.516;4.000;2023-05-21T13:02:13;21.50;99.90
6260;DHT22;3163;51.516;4.000;2023-05-21T13:04:39;21.90;99.90
6260;DHT22;3163;51.516;4.000;2023-05-21T13:07:04;22.10;99.90
6260;DHT22;3163;51.516;4.000;2023-05-21T13:09:30;22.40;99.90
6260;DHT22;3163;51.516;4.000;2023-05-21T13:11:55;22.20;99.90
6260;DHT22;3163;51.516;4.000;2023-05-21T13:14:21;22.20;99.90
6260;DHT22;3163;51.516;4.000;2023-05-21T13:16:47;22.20;99.90
6260;DHT22;3163;51.516;4.000;2023-05-21T13:19:12;22.00;99.90
6260;DHT22;3163;51.516;4.000;2023-05-21T13:21:39;21.80;99.90
6260;DHT22;3163;51.516;4.000;2023-05-21T13:24:07;21.20;99.90
6260;DHT22;3163;51.516;4.000;2023-05-21T13:26:33;21.20;99.90
6260;DHT22;3163;51.516;4.000;2023-05-21T13:28:58;20.70;99.90
6260;DHT22;3163;51.516;4.000;2023-05-21T13:31:24;21.20;99.90
6260;DHT22;3163;51.516;4.000;2023-05-21T13:33:49;21.70;99.90
6260;DHT22;3163;51.516;4.000;2023-05-21T13:36:15;21.90;99.90
6260;DHT22;3163;51.516;4.000;2023-05-21T13:38:41;22.40;99.90
6260;DHT22;3163;51.516;4.000;2023-05-21T13:41:07;22.60;99.90
6260;DHT22;3163;51.516;4.000;2023-05-21T13:43:32;22.50;99.90
6260;DHT22;3163;51.516;4.000;2023-05-21T13:45:58;22.50;99.90
6260;DHT22;3163;51.516;4.000;2023-05-21T13:48:24;22.30;99.90
6260;DHT22;3163;51.516;4.000;2023-05-21T13:50:49;22.20;99.90
6260;DHT22;3163;51.516;4.000;2023-05-21T13:53:15;22.30;99.90
6260;DHT22;3163;51.516;4.000;2023-05-21T13:55:40;22.50;99.90
6260;DHT22;3163;51.516;4.000;2023-05-21T13:58:06;22.20;99.90
6260;DHT22;3163;51.516;4.000;2023-05-21T14:00:32;21.50;99.90
6260;DHT22;3163;51.516;4.000;2023-05-21T14:02:57;22.20;99.90
6260;DHT22;3163;51.516;4.000;2023-05-21T14:05:23;22.40;99.90
6260;DHT22;3163;51.516;4.000;2023-05-21T14:07:48;22.60;99.90
6260;DHT22;3163;51.516;4.000;2023-05-21T14:10:15;22.20;99.90
6260;DHT22;3163;51.516;4.000;2023-05-21T14:12:41;22.50;99.90
6260;DHT22;3163;51.516;4.000;2023-05-21T14:15:07;22.30;99.90
6260;DHT22;3163;51.516;4.000;2023-05-21T14:17:33;22.30;99.90
6260;DHT22;3163;51.516;4.000;2023-05-21T14:19:58;22.10;99.90
6260;DHT22;3163;51.516;4.000;2023-05-21T14:22:24;22.40;99.90
6260;DHT22;3163;51.516;4.000;2023-05-21T14:24:49;22.40;99.90
6260;DHT22;3163;51.516;4.000;2023-05-21T14:27:15;22.60;99.90
6260;DHT22;3163;51.516;4.000;2023-05-21T14:29:41;22.00;99.90
6260;DHT22;3163;51.516;4.000;2023-05-21T14:32:07;22.00;99.90
6260;DHT22;3163;51.516;4.000;2023-05-21T14:34:32;22.10;99.90
6260;DHT22;3163;51.516;4.000;2023-05-21T14:36:58;22.30;99.90
6260;DHT22;3163;51.516;4.000;2023-05-21T14:39:23;22.40;99.90
6260;DHT22;3163;51.516;4.000;2023-05-21T14:41:49;22.20;99.90
6260;DHT22;3163;51.516;4.000;2023-05-21T14:44:15;22.20;99.90
6260;DHT22;3163;51.516;4.000;2023-05-21T14:46:40;22.40;99.90
6260;DHT22;3163;51.516;4.000;2023-05-21T14:49:06;22.20;99.90
6260;DHT22;3163;51.516;4.000;2023-05-21T14:51:32;22.10;99.90
6260;DHT22;3163;51.516;4.000;2023-05-21T14:53:57;22.30;99.90
6260;DHT22;3163;51.516;4.000;2023-05-21T14:56:23;22.30;99.90
6260;DHT22;3163;51.516;4.000;2023-05-21T14:58:51;21.60;99.90
6260;DHT22;3163;51.516;4.000;2023-05-21T15:01:17;21.70;99.90
6260;DHT22;3163;51.516;4.000;2023-05-21T15:03:43;21.80;99.90
6260;DHT22;3163;51.516;4.000;2023-05-21T15:06:08;21.90;99.90
6260;DHT22;3163;51.516;4.000;2023-05-21T15:08:34;22.20;99.90
6260;DHT22;3163;51.516;4.000;2023-05-21T15:11:00;22.40;99.90
6260;DHT22;3163;51.516;4.000;2023-05-21T15:13:25;22.50;99.90
6260;DHT22;3163;51.516;4.000;2023-05-21T15:15:51;22.50;99.90
6260;DHT22;3163;51.516;4.000;2023-05-21T15:18:17;22.30;99.90
6260;DHT22;3163;51.516;4.000;2023-05-21T15:20:43;22.50;99.90
6260;DHT22;3163;51.516;4.000;2023-05-21T15:23:08;22.40;99.90
6260;DHT22;3163;51.516;4.000;2023-05-21T15:25:34;22.40;99.90
6260;DHT22;3163;51.516;4.000;2023-05-21T15:28:00;22.10;99.90
6260;DHT22;3163;51.516;4.000;2023-05-21T15:30:25;21.60;99.90
6260;DHT22;3163;51.516;4.000;2023-05-21T15:32:52;21.90;99.90
6260;DHT22;3163;51.516;4.000;2023-05-21T15:35:18;22.10;99.90
6260;DHT22;3163;51.516;4.000;2023-05-21T15:37:43;22.30;99.90
6260;DHT22;3163;51.516;4.000;2023-05-21T15:40:10;22.10;99.90
6260;DHT22;3163;51.516;4.000;2023-05-21T15:42:35;21.90;99.90
6260;DHT22;3163;51.516;4.000;2023-05-21T15:45:01;22.00;99.90
6260;DHT22;3163;51.516;4.000;2023-05-21T15:47:27;22.10;99.90
6260;DHT22;3163;51.516;4.000;2023-05-21T15:49:52;22.00;99.90
6260;DHT22;3163;51.516;4.000;2023-05-21T15:52:18;21.90;99.90
6260;DHT22;3163;51.516;4.000;2023-05-21T15:54:44;22.20;99.90
6260;DHT22;3163;51.516;4.000;2023-05-21T15:57:10;22.10;99.90
6260;DHT22;3163;51.516;4.000;2023-05-21T15:59:36;21.90;99.90
6260;DHT22;3163;51.516;4.000;2023-05-21T16:02:02;21.80;99.90
6260;DHT22;3163;51.516;4.000;2023-05-21T16:04:27;21.80;99.90
6260;DHT22;3163;51.516;4.000;2023-05-21T16:06:53;21.90;99.90
6260;DHT22;3163;51.516;4.000;2023-05-21T16:09:18;21.90;99.90
6260;DHT22;3163;51.516;4.000;2023-05-21T16:11:44;21.90;99.90
6260;DHT22;3163;51.516;4.000;2023-05-21T16:14:10;21.80;99.90
6260;DHT22;3163;51.516;4.000;2023-05-21T16:19:04;21.80;99.90
6260;DHT22;3163;51.516;4.000;2023-05-21T16:21:29;21.60;99.90
6260;DHT22;3163;51.516;4.000;2023-05-21T16:23:56;21.60;99.90
6260;DHT22;3163;51.516;4.000;2023-05-21T16:26:22;20.90;99.90
6260;DHT22;3163;51.516;4.000;2023-05-21T16:28:48;20.90;99.90